Time;durP1;ratioP1;P1;durP2;ratioP2;P2;SDS_P1;SDS_P2;PMS_P1;PMS_P2;Temp;Humidity;BMP_temperature;BMP_pressure;BME280_temperature;BME280_humidity;BME280_pressure;Samples;Min_cycle;Max_cycle;Signal;HPM_P1;HPM_P2
2022/02/13 00:00:15;;;;;;;47.63;27.48;;;;;;;;;;5053995;28;20133;-72
2022/02/13 00:02:44;;;;;;;44.25;26.85;;;;;;;;;;5053615;28;20025;-72
2022/02/13 00:05:10;;;;;;;44.03;26.02;;;;;;;;;;5053121;28;20045;-72
2022/02/13 00:07:36;;;;;;;52.05;29.33;;;;;;;;;;5068810;28;20107;-72
2022/02/13 00:10:26;;;;;;;42.63;25.70;;;;;;;;;;5052514;28;20383;-73
2022/02/13 00:12:52;;;;;;;49.47;26.95;;;;;;;;;;5053679;28;20040;-72
2022/02/13 00:15:18;;;;;;;54.15;32.80;;;;;;;;;;5052665;28;20025;-71
2022/02/13 00:17:46;;;;;;;74.78;35.15;;;;;;;;;;5053172;28;20391;-71
2022/02/13 00:20:11;;;;;;;50.55;28.23;;;;;;;;;;5053313;28;20033;-72
2022/02/13 00:22:39;;;;;;;47.58;27.23;;;;;;;;;;5053743;28;20118;-72
2022/02/13 00:25:04;;;;;;;46.97;29.27;;;;;;;;;;5053637;28;20017;-75
2022/02/13 00:27:30;;;;;;;39.85;20.85;;;;;;;;;;5052233;28;20100;-74
2022/02/13 00:29:56;;;;;;;30.52;19.33;;;;;;;;;;5053432;28;20371;-74
2022/02/13 00:32:23;;;;;;;36.17;19.48;;;;;;;;;;5053232;28;20554;-73
2022/02/13 00:34:49;;;;;;;36.22;21.00;;;;;;;;;;5069001;28;20095;-73
2022/02/13 00:37:15;;;;;;;42.67;21.30;;;;;;;;;;5053105;28;20565;-74
2022/02/13 00:39:41;;;;;;;52.80;24.15;;;;;;;;;;5053169;28;20044;-74
2022/02/13 00:42:07;;;;;;;39.33;21.45;;;;;;;;;;5053329;28;20009;-74
2022/02/13 00:44:33;;;;;;;41.60;20.33;;;;;;;;;;5053204;28;20112;-75
2022/02/13 00:46:58;;;;;;;41.53;21.40;;;;;;;;;;5053026;28;20504;-75
2022/02/13 00:49:24;;;;;;;44.08;22.50;;;;;;;;;;5051700;28;20031;-75
2022/02/13 00:51:49;;;;;;;30.27;17.05;;;;;;;;;;5053316;28;20036;-75
2022/02/13 00:54:15;;;;;;;33.78;17.73;;;;;;;;;;5053169;28;20026;-75
2022/02/13 00:56:40;;;;;;;31.60;16.35;;;;;;;;;;5052718;28;20017;-75
2022/02/13 00:59:06;;;;;;;31.65;14.95;;;;;;;;;;5053095;28;20037;-74
2022/02/13 01:01:31;;;;;;;33.88;16.30;;;;;;;;;;5053378;28;20039;-74
2022/02/13 01:03:59;;;;;;;26.65;14.23;;;;;;;;;;5053016;28;20057;-74
2022/02/13 01:06:25;;;;;;;26.25;13.52;;;;;;;;;;5052317;28;20345;-75
2022/02/13 01:08:50;;;;;;;23.48;13.68;;;;;;;;;;5052916;28;20078;-75
2022/02/13 01:11:16;;;;;;;28.08;15.20;;;;;;;;;;5053681;28;20017;-75
2022/02/13 01:13:44;;;;;;;36.33;18.67;;;;;;;;;;5051639;28;20029;-75
2022/02/13 01:16:11;;;;;;;31.77;16.02;;;;;;;;;;5055836;28;20193;-75
2022/02/13 01:18:36;;;;;;;30.17;15.70;;;;;;;;;;5055609;28;20099;-75
2022/02/13 01:21:02;;;;;;;24.73;13.57;;;;;;;;;;5056901;28;20040;-75
2022/02/13 01:23:28;;;;;;;24.75;13.05;;;;;;;;;;5057063;28;20111;-75
2022/02/13 01:25:59;;;;;;;26.33;13.93;;;;;;;;;;5056544;28;20021;-75
2022/02/13 01:28:24;;;;;;;25.55;12.73;;;;;;;;;;5056574;28;20032;-75
2022/02/13 01:30:50;;;;;;;24.73;13.13;;;;;;;;;;5057173;28;20025;-75
2022/02/13 01:33:17;;;;;;;25.55;13.68;;;;;;;;;;5056691;28;20064;-75
2022/02/13 01:35:43;;;;;;;22.85;12.50;;;;;;;;;;5056980;28;20024;-73
2022/02/13 01:38:09;;;;;;;25.85;13.40;;;;;;;;;;5056450;28;20029;-74
2022/02/13 01:40:34;;;;;;;26.05;13.07;;;;;;;;;;5056393;28;20405;-74
2022/02/13 01:43:00;;;;;;;24.58;13.70;;;;;;;;;;5056606;28;20451;-75
2022/02/13 01:45:25;;;;;;;29.63;15.85;;;;;;;;;;5055251;28;20039;-76
2022/02/13 01:47:52;;;;;;;34.25;15.10;;;;;;;;;;5056256;28;20055;-75
2022/02/13 01:50:17;;;;;;;29.80;14.35;;;;;;;;;;5054647;28;20455;-75
2022/02/13 01:52:43;;;;;;;20.75;12.32;;;;;;;;;;5056648;28;20056;-75
2022/02/13 01:55:09;;;;;;;27.15;12.65;;;;;;;;;;5056119;28;20382;-76
2022/02/13 01:57:36;;;;;;;24.33;13.13;;;;;;;;;;5056021;28;20740;-75
2022/02/13 02:00:02;;;;;;;22.65;12.25;;;;;;;;;;5055997;28;20025;-74
2022/02/13 02:02:37;;;;;;;25.23;13.23;;;;;;;;;;5056363;28;20086;-74
2022/02/13 02:05:04;;;;;;;22.63;12.52;;;;;;;;;;5055096;28;20488;-74
2022/02/13 02:07:31;;;;;;;24.88;12.90;;;;;;;;;;5055867;28;20383;-74
2022/02/13 02:09:56;;;;;;;22.08;12.05;;;;;;;;;;5056554;28;20037;-75
2022/02/13 02:12:25;;;;;;;28.00;13.88;;;;;;;;;;5055637;28;20021;-75
2022/02/13 02:14:52;;;;;;;25.42;14.20;;;;;;;;;;5056179;28;20036;-75
2022/02/13 02:17:18;;;;;;;30.25;15.68;;;;;;;;;;5054904;28;20053;-74
2022/02/13 02:19:44;;;;;;;30.80;15.70;;;;;;;;;;5055489;28;20600;-75
2022/02/13 02:22:10;;;;;;;25.85;15.02;;;;;;;;;;5056017;28;20027;-73
2022/02/13 02:24:36;;;;;;;22.67;12.68;;;;;;;;;;5055575;28;20429;-74
2022/02/13 02:27:03;;;;;;;23.25;11.50;;;;;;;;;;5054906;28;20017;-74
2022/02/13 02:29:29;;;;;;;23.20;12.38;;;;;;;;;;5055928;28;20075;-73
2022/02/13 02:31:54;;;;;;;21.83;11.68;;;;;;;;;;5055573;28;20512;-73
2022/02/13 02:34:20;;;;;;;23.58;12.55;;;;;;;;;;5054723;28;20040;-76
2022/02/13 02:36:45;;;;;;;22.40;12.63;;;;;;;;;;5055352;28;20025;-76
2022/02/13 02:39:11;;;;;;;25.33;13.23;;;;;;;;;;5055576;28;20040;-76
2022/02/13 02:41:37;;;;;;;22.30;12.57;;;;;;;;;;5054973;28;20029;-74
2022/02/13 02:44:04;;;;;;;23.92;12.57;;;;;;;;;;5054395;28;20124;-73
2022/02/13 02:46:30;;;;;;;27.05;13.68;;;;;;;;;;5054910;28;20013;-73
2022/02/13 02:48:57;;;;;;;25.60;12.82;;;;;;;;;;5055208;28;20037;-73
2022/02/13 02:51:22;;;;;;;22.55;11.48;;;;;;;;;;5055725;28;20029;-73
2022/02/13 02:53:49;;;;;;;21.10;11.13;;;;;;;;;;5055357;28;20036;-73
2022/02/13 02:56:14;;;;;;;21.25;10.98;;;;;;;;;;5054974;28;20024;-73
2022/02/13 02:58:41;;;;;;;20.08;11.23;;;;;;;;;;5055012;28;20510;-74
2022/02/13 03:01:06;;;;;;;23.77;11.82;;;;;;;;;;5055250;28;20025;-73
2022/02/13 03:03:33;;;;;;;20.42;11.75;;;;;;;;;;5054832;28;20538;-71
2022/02/13 03:06:02;;;;;;;19.35;11.50;;;;;;;;;;5054957;28;20013;-70
2022/02/13 03:08:28;;;;;;;22.23;11.40;;;;;;;;;;5053669;28;20017;-71
2022/02/13 03:10:58;;;;;;;21.08;10.93;;;;;;;;;;5053809;28;20017;-70
2022/02/13 03:13:23;;;;;;;20.30;10.40;;;;;;;;;;5053518;28;20387;-71
2022/02/13 03:15:50;;;;;;;19.55;10.25;;;;;;;;;;5054804;28;20021;-71
2022/02/13 03:18:17;;;;;;;18.73;10.55;;;;;;;;;;5054362;28;20098;-70
2022/02/13 03:20:47;;;;;;;22.83;11.00;;;;;;;;;;5053298;28;20442;-70
2022/02/13 03:23:14;;;;;;;18.90;9.98;;;;;;;;;;5054903;28;20128;-70
2022/02/13 03:25:40;;;;;;;14.20;9.18;;;;;;;;;;5054473;28;20028;-70
2022/02/13 03:28:06;;;;;;;16.90;9.90;;;;;;;;;;5055026;28;20029;-70
2022/02/13 03:30:31;;;;;;;25.60;9.30;;;;;;;;;;5053299;28;20387;-70
2022/02/13 03:32:57;;;;;;;17.67;9.20;;;;;;;;;;5054363;28;20029;-71
2022/02/13 03:35:23;;;;;;;15.98;9.35;;;;;;;;;;5053176;28;20150;-71
2022/02/13 03:37:50;;;;;;;24.88;9.90;;;;;;;;;;5054019;28;20032;-70
2022/02/13 03:40:17;;;;;;;17.73;8.55;;;;;;;;;;5053599;28;20037;-70
2022/02/13 03:42:42;;;;;;;14.85;8.82;;;;;;;;;;5054014;28;20048;-70
2022/02/13 03:45:08;;;;;;;15.52;9.00;;;;;;;;;;5054487;28;20028;-70
2022/02/13 03:47:34;;;;;;;15.48;9.52;;;;;;;;;;5054271;28;20024;-70
2022/02/13 03:50:00;;;;;;;14.63;8.73;;;;;;;;;;5053911;28;20487;-70
2022/02/13 03:52:27;;;;;;;13.95;8.45;;;;;;;;;;5053681;28;20048;-70
2022/02/13 03:54:52;;;;;;;15.07;8.27;;;;;;;;;;5053862;28;20021;-70
2022/02/13 03:57:18;;;;;;;15.57;8.13;;;;;;;;;;5052643;28;20033;-71
2022/02/13 03:59:44;;;;;;;14.30;8.35;;;;;;;;;;5053871;28;20083;-75
2022/02/13 04:02:11;;;;;;;15.27;8.45;;;;;;;;;;5054134;28;20025;-71
2022/02/13 04:04:37;;;;;;;12.65;7.85;;;;;;;;;;5054046;28;20049;-70
2022/02/13 04:07:03;;;;;;;15.35;8.50;;;;;;;;;;5053615;28;20068;-70
2022/02/13 04:09:31;;;;;;;13.20;7.82;;;;;;;;;;5053619;28;20558;-72
2022/02/13 04:11:57;;;;;;;13.02;8.07;;;;;;;;;;5053674;28;20025;-72
2022/02/13 04:14:23;;;;;;;12.88;7.88;;;;;;;;;;5053618;28;20013;-73
2022/02/13 04:16:48;;;;;;;13.48;8.07;;;;;;;;;;5068481;28;20391;-72
2022/02/13 04:19:14;;;;;;;14.32;7.65;;;;;;;;;;5053072;28;20116;-72
2022/02/13 04:21:39;;;;;;;14.43;8.57;;;;;;;;;;5052231;28;20033;-72
2022/02/13 04:24:05;;;;;;;16.25;9.20;;;;;;;;;;5053704;28;20071;-75
2022/02/13 04:26:30;;;;;;;13.70;7.80;;;;;;;;;;5053457;28;20458;-76
2022/02/13 04:29:02;;;;;;;12.07;7.85;;;;;;;;;;5053552;28;20407;-74
2022/02/13 04:31:28;;;;;;;14.35;8.05;;;;;;;;;;5053877;28;20037;-73
2022/02/13 04:33:53;;;;;;;19.05;8.55;;;;;;;;;;5052085;28;20032;-73
2022/02/13 04:36:22;;;;;;;12.95;8.20;;;;;;;;;;5053886;28;20539;-74
2022/02/13 04:38:48;;;;;;;12.45;7.40;;;;;;;;;;5051912;28;20028;-75
2022/02/13 04:41:13;;;;;;;13.43;7.60;;;;;;;;;;5053100;28;20094;-70
2022/02/13 04:43:38;;;;;;;14.57;8.07;;;;;;;;;;5053119;28;20020;-70
2022/02/13 04:46:04;;;;;;;13.82;7.95;;;;;;;;;;5053169;28;20028;-70
2022/02/13 04:48:29;;;;;;;10.07;7.68;;;;;;;;;;5053116;28;20460;-70
2022/02/13 04:50:55;;;;;;;11.23;7.32;;;;;;;;;;5055472;28;20033;-71
2022/02/13 04:53:20;;;;;;;11.45;7.70;;;;;;;;;;5057362;28;20021;-71
2022/02/13 04:55:46;;;;;;;12.98;8.20;;;;;;;;;;5056267;28;20063;-71
2022/02/13 04:58:11;;;;;;;12.35;8.50;;;;;;;;;;5057216;28;20024;-71
2022/02/13 05:00:37;;;;;;;17.35;9.48;;;;;;;;;;5055876;28;20352;-71
2022/02/13 05:03:02;;;;;;;15.63;9.68;;;;;;;;;;5057263;28;20086;-71
2022/02/13 05:05:28;;;;;;;15.68;9.50;;;;;;;;;;5057233;28;20483;-71
2022/02/13 05:07:54;;;;;;;17.40;9.70;;;;;;;;;;5056934;28;20024;-70
2022/02/13 05:10:19;;;;;;;16.45;9.93;;;;;;;;;;5055854;28;20383;-70
2022/02/13 05:12:45;;;;;;;17.88;10.13;;;;;;;;;;5057032;28;20025;-70
2022/02/13 05:15:10;;;;;;;17.75;9.70;;;;;;;;;;5072179;28;20036;-70
2022/02/13 05:17:37;;;;;;;18.33;9.63;;;;;;;;;;5056476;28;20076;-70
2022/02/13 05:20:04;;;;;;;16.42;9.65;;;;;;;;;;5056714;28;20040;-71
2022/02/13 05:22:29;;;;;;;17.70;9.30;;;;;;;;;;5056694;28;20025;-72
2022/02/13 05:24:55;;;;;;;15.80;9.13;;;;;;;;;;5056770;28;20029;-73
2022/02/13 05:27:22;;;;;;;15.15;9.48;;;;;;;;;;5056663;28;20032;-76
2022/02/13 05:29:47;;;;;;;16.65;9.88;;;;;;;;;;5056776;28;20056;-75
2022/02/13 05:32:14;;;;;;;15.93;10.10;;;;;;;;;;5056800;28;20052;-71
2022/02/13 05:34:39;;;;;;;22.13;13.40;;;;;;;;;;5063413;28;20383;-72
2022/02/13 05:37:05;;;;;;;21.67;12.75;;;;;;;;;;5070686;28;20025;-75
2022/02/13 05:39:30;;;;;;;20.17;12.35;;;;;;;;;;5070841;28;20052;-75
2022/02/13 05:41:57;;;;;;;19.52;12.05;;;;;;;;;;5073002;28;20021;-76
2022/02/13 05:44:23;;;;;;;23.05;13.23;;;;;;;;;;5058688;28;20094;-75
2022/02/13 05:46:48;;;;;;;25.08;12.07;;;;;;;;;;5067006;28;20000;-75
2022/02/13 05:49:14;;;;;;;21.50;10.27;;;;;;;;;;5066038;28;20471;-75
2022/02/13 05:51:40;;;;;;;17.88;10.30;;;;;;;;;;5062397;28;20343;-75
2022/02/13 05:54:06;;;;;;;24.90;11.15;;;;;;;;;;5067003;28;20021;-76
2022/02/13 05:56:33;;;;;;;16.40;9.93;;;;;;;;;;5069668;28;20020;-75
2022/02/13 05:58:58;;;;;;;21.27;10.13;;;;;;;;;;5066264;28;20037;-75
2022/02/13 06:01:24;;;;;;;18.60;9.93;;;;;;;;;;5064058;28;20130;-75
2022/02/13 06:03:50;;;;;;;35.10;14.68;;;;;;;;;;5065101;28;20029;-76
2022/02/13 06:06:15;;;;;;;42.28;16.60;;;;;;;;;;5077869;28;20017;-75
2022/02/13 06:08:41;;;;;;;65.60;24.10;;;;;;;;;;5063763;28;20036;-76
2022/02/13 06:11:07;;;;;;;65.18;24.70;;;;;;;;;;5060939;28;20021;-75
2022/02/13 06:13:32;;;;;;;96.10;35.10;;;;;;;;;;5074131;28;20119;-76
2022/02/13 06:16:01;;;;;;;52.08;23.77;;;;;;;;;;5075876;28;20099;-75
2022/02/13 06:18:28;;;;;;;97.18;38.88;;;;;;;;;;5075832;28;20486;-75
2022/02/13 06:20:54;;;;;;;109.25;44.65;;;;;;;;;;5071393;28;20071;-76
2022/02/13 06:23:19;;;;;;;75.75;28.17;;;;;;;;;;5065024;28;20052;-75
2022/02/13 06:25:47;;;;;;;65.00;29.15;;;;;;;;;;5063874;28;20452;-75
2022/02/13 06:28:13;;;;;;;85.70;39.50;;;;;;;;;;5066180;28;20031;-75
2022/02/13 06:30:39;;;;;;;63.65;32.92;;;;;;;;;;5064996;28;20055;-75
2022/02/13 06:33:05;;;;;;;57.50;27.73;;;;;;;;;;5073174;28;20056;-76
2022/02/13 06:35:32;;;;;;;42.35;23.45;;;;;;;;;;5075989;28;20420;-75
2022/02/13 06:37:58;;;;;;;32.03;16.65;;;;;;;;;;5073901;28;20123;-77
2022/02/13 06:40:27;;;;;;;57.95;26.38;;;;;;;;;;5075318;28;20036;-76
2022/02/13 06:42:52;;;;;;;43.80;21.20;;;;;;;;;;5075180;28;20020;-75
2022/02/13 06:45:20;;;;;;;55.75;25.05;;;;;;;;;;5075305;28;20055;-76
2022/02/13 06:47:45;;;;;;;98.10;39.97;;;;;;;;;;5075188;28;20067;-75
2022/02/13 06:50:13;;;;;;;60.95;28.02;;;;;;;;;;5075192;28;20059;-76
2022/02/13 06:52:40;;;;;;;76.03;35.35;;;;;;;;;;5073704;28;20032;-75
2022/02/13 06:55:05;;;;;;;68.53;29.85;;;;;;;;;;5075331;28;20066;-75
2022/02/13 06:57:31;;;;;;;36.55;17.38;;;;;;;;;;5074852;28;20391;-75
2022/02/13 06:59:56;;;;;;;23.95;12.57;;;;;;;;;;5074762;28;20401;-75
2022/02/13 07:02:23;;;;;;;15.20;9.10;;;;;;;;;;5075172;28;20025;-76
2022/02/13 07:04:48;;;;;;;14.77;8.70;;;;;;;;;;5074884;28;20478;-75
2022/02/13 07:07:14;;;;;;;12.40;7.20;;;;;;;;;;5075529;28;20029;-75
2022/02/13 07:09:41;;;;;;;13.85;7.40;;;;;;;;;;5075139;28;20177;-75
2022/02/13 07:12:12;;;;;;;10.23;7.03;;;;;;;;;;5073064;28;20108;-75
2022/02/13 07:14:39;;;;;;;12.63;6.72;;;;;;;;;;5074310;28;20028;-75
2022/02/13 07:17:05;;;;;;;14.05;7.65;;;;;;;;;;5073719;28;20048;-71
2022/02/13 07:19:31;;;;;;;10.13;6.47;;;;;;;;;;5073661;28;20028;-71
2022/02/13 07:21:56;;;;;;;13.02;7.03;;;;;;;;;;5074632;28;20024;-71
2022/02/13 07:24:22;;;;;;;10.57;6.35;;;;;;;;;;5074587;28;20028;-71
2022/02/13 07:26:48;;;;;;;12.23;7.20;;;;;;;;;;5074316;28;20009;-75
2022/02/13 07:29:16;;;;;;;11.07;6.97;;;;;;;;;;5074815;28;20064;-76
2022/02/13 07:31:41;;;;;;;11.85;7.13;;;;;;;;;;5074430;28;20025;-75
2022/02/13 07:34:06;;;;;;;14.52;8.90;;;;;;;;;;5074325;28;20033;-75
2022/02/13 07:36:32;;;;;;;12.15;7.07;;;;;;;;;;5074145;28;20024;-76
2022/02/13 07:38:58;;;;;;;10.98;7.68;;;;;;;;;;5074539;28;20043;-76
2022/02/13 07:41:26;;;;;;;13.50;7.95;;;;;;;;;;5074246;28;20017;-76
2022/02/13 07:43:56;;;;;;;31.90;21.38;;;;;;;;;;5073924;28;20028;-76
2022/02/13 07:46:21;;;;;;;29.50;20.63;;;;;;;;;;5074281;28;20020;-75
2022/02/13 07:48:48;;;;;;;19.55;12.02;;;;;;;;;;5074088;28;20040;-75
2022/02/13 07:51:14;;;;;;;18.73;11.30;;;;;;;;;;5074390;28;20489;-76
2022/02/13 07:53:40;;;;;;;13.50;8.88;;;;;;;;;;5073085;28;20398;-77
2022/02/13 07:56:06;;;;;;;17.00;10.40;;;;;;;;;;5073985;28;20107;-76
2022/02/13 07:58:38;;;;;;;11.13;7.53;;;;;;;;;;5074428;28;20066;-76
2022/02/13 08:01:05;;;;;;;11.50;6.63;;;;;;;;;;5074078;28;20402;-76
2022/02/13 08:03:35;;;;;;;12.13;7.30;;;;;;;;;;5074124;28;20016;-76
2022/02/13 08:06:01;;;;;;;18.23;7.97;;;;;;;;;;5074171;28;20494;-76
2022/02/13 08:08:27;;;;;;;16.40;9.63;;;;;;;;;;5074178;28;20029;-77
2022/02/13 08:10:56;;;;;;;11.30;7.63;;;;;;;;;;5072258;28;20032;-76
2022/02/13 08:13:22;;;;;;;12.10;7.47;;;;;;;;;;5073628;28;20534;-77
2022/02/13 08:15:50;;;;;;;8.98;6.05;;;;;;;;;;5072655;28;20041;-76
2022/02/13 08:18:16;;;;;;;11.57;7.53;;;;;;;;;;5073205;28;20131;-77
2022/02/13 08:20:41;;;;;;;13.32;8.57;;;;;;;;;;5073349;28;20063;-77
2022/02/13 08:23:08;;;;;;;18.52;10.57;;;;;;;;;;5073856;28;20063;-77
2022/02/13 08:25:33;;;;;;;20.55;11.38;;;;;;;;;;5071737;28;20024;-76
2022/02/13 08:28:00;;;;;;;8.30;6.35;;;;;;;;;;5073910;28;20352;-76
2022/02/13 08:30:25;;;;;;;9.18;6.13;;;;;;;;;;5073897;28;20123;-77
2022/02/13 08:32:53;;;;;;;10.45;6.18;;;;;;;;;;5089472;28;20063;-77
2022/02/13 08:35:18;;;;;;;11.70;6.55;;;;;;;;;;5073416;28;20031;-76
2022/02/13 08:37:45;;;;;;;8.02;6.15;;;;;;;;;;5073034;28;20020;-76
2022/02/13 08:40:10;;;;;;;11.13;6.50;;;;;;;;;;5073164;28;20119;-76
2022/02/13 08:42:36;;;;;;;10.68;6.82;;;;;;;;;;5073362;28;20494;-76
2022/02/13 08:45:04;;;;;;;11.05;7.15;;;;;;;;;;5073159;28;20020;-76
2022/02/13 08:47:29;;;;;;;7.40;4.75;;;;;;;;;;5073223;28;20024;-76
2022/02/13 08:49:56;;;;;;;11.30;5.25;;;;;;;;;;5073088;28;20029;-77
2022/02/13 08:52:22;;;;;;;7.38;4.93;;;;;;;;;;5073293;28;20031;-76
2022/02/13 08:54:49;;;;;;;6.22;4.57;;;;;;;;;;5073260;28;20024;-77
2022/02/13 08:57:14;;;;;;;5.05;4.05;;;;;;;;;;5073098;28;20043;-77
2022/02/13 08:59:41;;;;;;;7.32;4.75;;;;;;;;;;5073075;28;20028;-76
2022/02/13 09:02:08;;;;;;;4.70;3.90;;;;;;;;;;5073141;28;20462;-76
2022/02/13 09:04:35;;;;;;;4.57;4.03;;;;;;;;;;5073004;28;20036;-77
2022/02/13 09:07:03;;;;;;;8.05;4.57;;;;;;;;;;5073405;28;20016;-77
2022/02/13 09:09:29;;;;;;;6.40;4.32;;;;;;;;;;5088651;28;20028;-77
2022/02/13 09:11:55;;;;;;;8.55;4.65;;;;;;;;;;5073285;28;20031;-77
2022/02/13 09:14:21;;;;;;;11.93;7.30;;;;;;;;;;5073073;28;20059;-76
2022/02/13 09:16:47;;;;;;;7.75;5.65;;;;;;;;;;5072675;28;20041;-76
2022/02/13 09:19:13;;;;;;;6.43;4.20;;;;;;;;;;5073146;28;20474;-77
2022/02/13 09:21:40;;;;;;;5.72;4.15;;;;;;;;;;5071823;28;20039;-76
2022/02/13 09:24:06;;;;;;;6.60;5.10;;;;;;;;;;5072786;28;20115;-76
2022/02/13 09:26:31;;;;;;;7.03;4.65;;;;;;;;;;5073245;28;20480;-76
2022/02/13 09:29:00;;;;;;;9.50;5.05;;;;;;;;;;5072920;28;20493;-76
2022/02/13 09:31:26;;;;;;;12.60;8.48;;;;;;;;;;5073317;28;20378;-76
2022/02/13 09:33:52;;;;;;;9.07;5.65;;;;;;;;;;5072884;28;20067;-76
2022/02/13 09:36:22;;;;;;;8.15;5.28;;;;;;;;;;5073396;28;20035;-77
2022/02/13 09:38:50;;;;;;;;;;;;;;;;;;5076894;28;20033;-77
2022/02/13 09:41:21;;;;;;;11.18;6.57;;;;;;;;;;5076222;28;19915;-76
2022/02/13 09:43:47;;;;;;;8.85;6.43;;;;;;;;;;5075088;28;20432;-77
2022/02/13 09:46:13;;;;;;;7.57;5.60;;;;;;;;;;5076226;28;20044;-76
2022/02/13 09:48:39;;;;;;;9.98;6.55;;;;;;;;;;5076226;28;20032;-77
2022/02/13 09:51:05;;;;;;;16.25;8.68;;;;;;;;;;5076583;28;20025;-76
2022/02/13 09:53:34;;;;;;;15.95;8.25;;;;;;;;;;5091797;28;20170;-76
2022/02/13 09:56:06;;;;;;;14.57;8.65;;;;;;;;;;5076130;28;20395;-76
2022/02/13 09:58:36;;;;;;;10.18;6.93;;;;;;;;;;5076194;28;20475;-76
2022/02/13 10:01:07;;;;;;;6.80;4.80;;;;;;;;;;5075966;28;20032;-76
2022/02/13 10:03:33;;;;;;;6.93;5.18;;;;;;;;;;5075986;28;20044;-76
2022/02/13 10:06:00;;;;;;;6.90;4.82;;;;;;;;;;5076014;28;20490;-76
2022/02/13 10:08:27;;;;;;;5.43;4.20;;;;;;;;;;5075965;28;20478;-77
2022/02/13 10:11:08;;;;;;;9.50;5.65;;;;;;;;;;5075839;28;20068;-76
2022/02/13 10:13:45;;;;;;;8.05;5.50;;;;;;;;;;5076154;28;20029;-76
2022/02/13 10:16:13;;;;;;;7.75;5.32;;;;;;;;;;5074525;28;20146;-77
2022/02/13 10:18:49;;;;;;;6.82;4.72;;;;;;;;;;5074980;28;20409;-77
2022/02/13 10:21:41;;;;;;;7.13;4.68;;;;;;;;;;5075786;28;20494;-76
2022/02/13 10:24:13;;;;;;;5.18;4.15;;;;;;;;;;5074290;28;20127;-76
2022/02/13 10:26:40;;;;;;;6.45;5.07;;;;;;;;;;5075689;28;20131;-76
2022/02/13 10:29:06;;;;;;;8.13;4.72;;;;;;;;;;5075513;28;20008;-77
2022/02/13 10:31:31;;;;;;;6.18;4.88;;;;;;;;;;5075580;28;20047;-77
2022/02/13 10:33:58;;;;;;;3.10;2.83;;;;;;;;;;5075414;28;20028;-76
2022/02/13 10:36:24;;;;;;;5.05;3.80;;;;;;;;;;5074087;28;20036;-76
2022/02/13 10:38:49;;;;;;;7.47;4.57;;;;;;;;;;5075319;28;20024;-76
2022/02/13 10:41:19;;;;;;;4.60;3.42;;;;;;;;;;5075592;28;20029;-76
2022/02/13 10:44:01;;;;;;;4.33;2.57;;;;;;;;;;5075427;28;20035;-76
2022/02/13 10:46:30;;;;;;;2.70;2.35;;;;;;;;;;5074729;28;20025;-77
2022/02/13 10:48:56;;;;;;;2.20;2.00;;;;;;;;;;5074452;28;20032;-76
2022/02/13 10:51:22;;;;;;;6.60;4.30;;;;;;;;;;5075411;28;20424;-77
2022/02/13 10:53:48;;;;;;;4.60;3.15;;;;;;;;;;5073803;28;20021;-76
2022/02/13 10:56:14;;;;;;;3.58;3.08;;;;;;;;;;5075019;28;20545;-76
2022/02/13 10:58:40;;;;;;;5.15;3.33;;;;;;;;;;5075034;28;20055;-77
2022/02/13 11:01:07;;;;;;;3.80;1.58;;;;;;;;;;5074917;28;20071;-77
2022/02/13 11:03:35;;;;;;;6.32;3.75;;;;;;;;;;5075046;28;20061;-77
2022/02/13 11:06:03;;;;;;;3.53;2.58;;;;;;;;;;5074006;28;20032;-77
2022/02/13 11:08:31;;;;;;;3.33;2.55;;;;;;;;;;5074709;28;20048;-77
2022/02/13 11:10:57;;;;;;;3.78;2.35;;;;;;;;;;5074697;28;20036;-77
2022/02/13 11:13:29;;;;;;;3.22;2.08;;;;;;;;;;5074735;28;20154;-77
2022/02/13 11:15:55;;;;;;;7.10;3.10;;;;;;;;;;5074941;28;20024;-76
2022/02/13 11:18:30;;;;;;;2.15;1.95;;;;;;;;;;5073359;28;20059;-76
2022/02/13 11:20:56;;;;;;;5.18;2.78;;;;;;;;;;5074817;28;20083;-76
2022/02/13 11:23:22;;;;;;;5.50;3.55;;;;;;;;;;5074405;28;20559;-76
2022/02/13 11:25:49;;;;;;;5.10;3.67;;;;;;;;;;5074524;28;20031;-76
2022/02/13 11:28:27;;;;;;;4.65;3.78;;;;;;;;;;5074544;28;20024;-76
2022/02/13 11:30:57;;;;;;;4.68;3.58;;;;;;;;;;5073670;28;20394;-76
2022/02/13 11:33:22;;;;;;;5.38;4.20;;;;;;;;;;5074313;28;20032;-76
2022/02/13 11:35:55;;;;;;;1.70;1.55;;;;;;;;;;5073326;28;20119;-76
2022/02/13 11:38:39;;;;;;;6.80;4.13;;;;;;;;;;5074314;28;20028;-76
2022/02/13 11:41:06;;;;;;;5.82;3.53;;;;;;;;;;5072843;28;20028;-76
2022/02/13 11:43:49;;;;;;;3.08;2.28;;;;;;;;;;5073458;28;20485;-76
2022/02/13 11:46:33;;;;;;;4.15;3.45;;;;;;;;;;5072759;28;20033;-76
2022/02/13 11:48:59;;;;;;;4.90;3.28;;;;;;;;;;5072907;28;20131;-76
2022/02/13 11:51:43;;;;;;;2.95;2.17;;;;;;;;;;5072852;28;20020;-76
2022/02/13 11:54:09;;;;;;;3.65;2.60;;;;;;;;;;5073931;28;20032;-76
2022/02/13 11:56:35;;;;;;;2.92;2.50;;;;;;;;;;5073878;28;20043;-76
2022/02/13 11:59:01;;;;;;;2.75;2.10;;;;;;;;;;5073808;28;20028;-76
2022/02/13 12:01:37;;;;;;;2.15;2.00;;;;;;;;;;5072949;28;20024;-77
2022/02/13 12:04:03;;;;;;;2.35;2.10;;;;;;;;;;5072684;28;20052;-76
2022/02/13 12:06:35;;;;;;;3.33;2.45;;;;;;;;;;5073776;28;20055;-76
2022/02/13 12:09:02;;;;;;;2.42;2.22;;;;;;;;;;5073777;28;20597;-77
2022/02/13 12:11:29;;;;;;;3.22;2.47;;;;;;;;;;5073728;28;20024;-77
2022/02/13 12:13:54;;;;;;;3.45;2.28;;;;;;;;;;5073570;28;20600;-77
2022/02/13 12:16:23;;;;;;;2.58;2.35;;;;;;;;;;5072381;28;20044;-76
2022/02/13 12:18:52;;;;;;;2.47;2.28;;;;;;;;;;5073407;28;20044;-76
2022/02/13 12:21:25;;;;;;;2.20;2.00;;;;;;;;;;5073360;28;20035;-77
2022/02/13 12:23:59;;;;;;;2.42;2.17;;;;;;;;;;5073517;28;20483;-76
2022/02/13 12:26:24;;;;;;;4.63;2.75;;;;;;;;;;5073943;28;20028;-76
2022/02/13 12:28:50;;;;;;;4.43;3.20;;;;;;;;;;5073787;28;20418;-76
2022/02/13 12:31:21;;;;;;;4.95;2.63;;;;;;;;;;5072638;28;20378;-76
2022/02/13 12:33:51;;;;;;;2.33;2.10;;;;;;;;;;5073536;28;20028;-77
2022/02/13 12:36:26;;;;;;;4.97;3.03;;;;;;;;;;5073162;28;20028;-76
2022/02/13 12:38:55;;;;;;;1.25;1.17;;;;;;;;;;5072085;28;20388;-76
2022/02/13 12:41:22;;;;;;;4.22;2.95;;;;;;;;;;5072438;28;20047;-76
2022/02/13 12:43:48;;;;;;;3.50;2.58;;;;;;;;;;5073174;28;20029;-76
2022/02/13 12:46:16;;;;;;;4.57;2.90;;;;;;;;;;5073239;28;20378;-77
2022/02/13 12:48:42;;;;;;;3.70;2.85;;;;;;;;;;5072000;28;20032;-76
2022/02/13 12:51:09;;;;;;;8.68;4.57;;;;;;;;;;5073581;28;20358;-76
2022/02/13 12:53:37;;;;;;;1.70;1.35;;;;;;;;;;5073362;28;20473;-76
2022/02/13 12:56:12;;;;;;;5.05;3.13;;;;;;;;;;5072464;28;20032;-76
2022/02/13 12:58:38;;;;;;;15.48;6.68;;;;;;;;;;5071887;28;20547;-76
2022/02/13 13:01:04;;;;;;;23.20;9.63;;;;;;;;;;5073149;28;20017;-77
2022/02/13 13:03:37;;;;;;;6.95;3.47;;;;;;;;;;5073189;28;20024;-76
2022/02/13 13:06:04;;;;;;;30.85;12.13;;;;;;;;;;5071989;28;20386;-76
2022/02/13 13:08:50;;;;;;;10.80;6.60;;;;;;;;;;5072937;28;20016;-76
2022/02/13 13:11:32;;;;;;;7.95;4.85;;;;;;;;;;5072961;28;20041;-76
2022/02/13 13:14:05;;;;;;;6.03;3.60;;;;;;;;;;5076781;28;20478;-77
2022/02/13 13:16:33;;;;;;;20.60;10.75;;;;;;;;;;5076642;28;20028;-77
2022/02/13 13:19:00;;;;;;;8.07;5.20;;;;;;;;;;5076953;28;20040;-77
2022/02/13 13:21:29;;;;;;;5.07;3.42;;;;;;;;;;5076763;28;20135;-77
2022/02/13 13:23:58;;;;;;;4.70;3.97;;;;;;;;;;5075882;28;20033;-76
2022/02/13 13:26:23;;;;;;;9.07;4.97;;;;;;;;;;5076653;28;20031;-70
2022/02/13 13:28:49;;;;;;;4.13;3.60;;;;;;;;;;5075515;28;20020;-70
2022/02/13 13:31:14;;;;;;;7.65;4.28;;;;;;;;;;5077149;28;20459;-70
2022/02/13 13:33:41;;;;;;;3.17;2.00;;;;;;;;;;5092211;28;20032;-70
2022/02/13 13:36:08;;;;;;;4.97;3.75;;;;;;;;;;5076611;28;20082;-70
2022/02/13 13:38:34;;;;;;;7.15;2.97;;;;;;;;;;5076578;28;20070;-70
2022/02/13 13:41:08;;;;;;;5.38;3.83;;;;;;;;;;5075265;28;20350;-70
2022/02/13 13:43:35;;;;;;;17.13;8.02;;;;;;;;;;5075306;28;20032;-71
2022/02/13 13:46:15;;;;;;;4.18;2.97;;;;;;;;;;5076656;28;20047;-70
2022/02/13 13:48:40;;;;;;;4.80;3.65;;;;;;;;;;5075483;28;20024;-70
2022/02/13 13:51:06;;;;;;;5.80;3.78;;;;;;;;;;5076322;28;20633;-70
2022/02/13 13:53:32;;;;;;;4.03;2.70;;;;;;;;;;5076350;28;20082;-70
2022/02/13 13:55:57;;;;;;;4.50;3.78;;;;;;;;;;5075012;28;20017;-70
2022/02/13 13:58:22;;;;;;;6.57;4.03;;;;;;;;;;5074856;28;20029;-70
2022/02/13 14:00:48;;;;;;;4.45;3.58;;;;;;;;;;5075856;28;20100;-71
2022/02/13 14:03:16;;;;;;;6.22;3.70;;;;;;;;;;5076126;28;20036;-70
2022/02/13 14:05:42;;;;;;;4.45;3.47;;;;;;;;;;5075982;28;20043;-70
2022/02/13 14:08:08;;;;;;;5.05;3.67;;;;;;;;;;5076496;28;20459;-76
2022/02/13 14:10:36;;;;;;;6.82;4.75;;;;;;;;;;5076197;28;20027;-77
2022/02/13 14:13:02;;;;;;;3.40;3.05;;;;;;;;;;5076597;28;20037;-77
2022/02/13 14:15:30;;;;;;;4.03;2.95;;;;;;;;;;5074738;28;20016;-76
2022/02/13 14:17:57;;;;;;;6.05;4.15;;;;;;;;;;5074806;28;20493;-76
2022/02/13 14:20:22;;;;;;;3.80;3.35;;;;;;;;;;5074577;28;20075;-77
2022/02/13 14:22:48;;;;;;;7.30;4.70;;;;;;;;;;5052504;28;20056;-75
2022/02/13 14:25:14;;;;;;;22.30;8.95;;;;;;;;;;5055952;28;20052;-75
2022/02/13 14:27:42;;;;;;;5.53;3.40;;;;;;;;;;5054365;28;20059;-76
2022/02/13 14:30:08;;;;;;;3.72;3.03;;;;;;;;;;5055672;28;20021;-76